Main page
METAR-TAF:

METAR-TAF

Airports :

Leonardo da Vinci–Fiumicino Airport

Rome-Fiumicino, Italy

latitude: 41-48N, longitude: 012-14E, elevation: 2 m

Current weather observation

The report was made 25 minutes ago, at 19:50 UTC
Wind 4 kt from the South/Southeast
Temperature 26°C
Humidity 70%
Pressure 1014 hPa
Visibility 10 km or more
no clouds below 1500 m and no cumulonimbus

METAR: LIRF 281950Z 16004KT CAVOK 26/20 Q1014 NOSIG

Time: 22:15 (20:15 UTC)

Forecast

The report was made 3 hours and 15 minutes ago, at 17:00 UTC
Forecast valid from 28 at 18 UTC to 29 at 24 UTC
Wind 10 kt from the South
Visibility 10 km or more
no clouds below 1500 m and no cumulonimbus
Becoming
from 28 at 18 UTC to 28 at 20 UTC
Wind 5 kt from variable directions
Becoming
from 29 at 08 UTC to 29 at 10 UTC
Wind 12 kt from the West/Southwest
Becoming
from 29 at 18 UTC to 29 at 20 UTC
Wind 5 kt from variable directions

TAF: LIRF 281700Z 2818/2924 18010KT CAVOK BECMG 2818/2820 VRB05KT BECMG 2908/2910 24012KT BECMG 2918/2920 VRB05KT

Weather observations and forecasts of more than 4000 airports (METAR and TAF reports).

The available stations are represented by yellow and red dots on the map.

Hover mouse over dot to see the name of the station.

Then click to see weather observations and forecasts.

To change the map : click on the green buttons with a black cross to zoom in, on the green button with a dash to zoom out, or on the green arrows for adjacent maps.


METAR-TAF: